Terminal Aerodrome Forecast
Issued by NWS Upton, NY

Current Version | Previous Version | Text Only | Print | Product List | Glossary On
Versions: 1 2 3 4 5 6 7 8 9 10 11 12 13 14 15 16 17 18 19 20 21 22 23 24 25 26 27 28 29 30 31 32 33
000
FTUS41 KOKX 260520
TAFBDR
TAF
KBDR 260520Z 2606/2706 VRB05KT 2SM SHRA BR VCTS SCT006 OVC015CB
     FM260800 VRB05KT 2SM SHRA BR OVC004
     FM261100 30008KT 6SM -SHRA SCT007 BKN012
     FM261500 29010KT P6SM SCT015 BKN025
     FM261700 29013G22KT P6SM SCT025 BKN035
     FM270000 31010KT P6SM SCT050=

USA.gov is the U.S. government's official web portal to all federal, state and local government web resources and services.